sensor_id;sensor_type;location;lat;lon;timestamp;P1;durP1;ratioP1;P2;durP2;ratioP2
24335;SDS011;33098;52.400;16.880;2022-10-16T00:01:35;23.60;;;17.30;;
24335;SDS011;33098;52.400;16.880;2022-10-16T00:04:02;24.60;;;17.70;;
24335;SDS011;33098;52.400;16.880;2022-10-16T00:06:30;24.80;;;17.80;;
24335;SDS011;33098;52.400;16.880;2022-10-16T00:08:59;21.30;;;16.40;;
24335;SDS011;33098;52.400;16.880;2022-10-16T00:11:33;22.50;;;16.80;;
24335;SDS011;33098;52.400;16.880;2022-10-16T00:14:03;22.80;;;17.60;;
24335;SDS011;33098;52.400;16.880;2022-10-16T00:16:33;21.40;;;15.90;;
24335;SDS011;33098;52.400;16.880;2022-10-16T00:19:01;23.00;;;16.20;;
24335;SDS011;33098;52.400;16.880;2022-10-16T00:21:32;21.00;;;15.80;;
24335;SDS011;33098;52.400;16.880;2022-10-16T00:24:04;21.20;;;15.60;;
24335;SDS011;33098;52.400;16.880;2022-10-16T00:26:35;22.70;;;15.60;;
24335;SDS011;33098;52.400;16.880;2022-10-16T00:29:03;20.00;;;15.50;;
24335;SDS011;33098;52.400;16.880;2022-10-16T00:31:33;18.80;;;15.10;;
24335;SDS011;33098;52.400;16.880;2022-10-16T00:34:00;24.40;;;15.20;;
24335;SDS011;33098;52.400;16.880;2022-10-16T00:36:30;19.70;;;14.50;;
24335;SDS011;33098;52.400;16.880;2022-10-16T00:39:01;19.90;;;15.00;;
24335;SDS011;33098;52.400;16.880;2022-10-16T00:41:32;19.50;;;14.60;;
24335;SDS011;33098;52.400;16.880;2022-10-16T00:44:00;19.40;;;15.00;;
24335;SDS011;33098;52.400;16.880;2022-10-16T00:46:38;18.00;;;14.50;;
24335;SDS011;33098;52.400;16.880;2022-10-16T00:51:46;18.50;;;14.40;;
24335;SDS011;33098;52.400;16.880;2022-10-16T00:54:15;18.60;;;13.90;;
24335;SDS011;33098;52.400;16.880;2022-10-16T00:56:51;18.00;;;13.90;;
24335;SDS011;33098;52.400;16.880;2022-10-16T00:59:20;18.60;;;14.40;;
24335;SDS011;33098;52.400;16.880;2022-10-16T01:01:55;18.00;;;13.70;;
24335;SDS011;33098;52.400;16.880;2022-10-16T01:04:23;19.10;;;13.90;;
24335;SDS011;33098;52.400;16.880;2022-10-16T01:07:07;23.00;;;13.80;;
24335;SDS011;33098;52.400;16.880;2022-10-16T01:12:18;19.10;;;14.10;;
24335;SDS011;33098;52.400;16.880;2022-10-16T01:22:48;19.00;;;12.60;;
24335;SDS011;33098;52.400;16.880;2022-10-16T01:25:51;17.30;;;13.10;;
24335;SDS011;33098;52.400;16.880;2022-10-16T01:28:21;16.00;;;13.20;;
24335;SDS011;33098;52.400;16.880;2022-10-16T01:30:55;15.50;;;12.30;;
24335;SDS011;33098;52.400;16.880;2022-10-16T01:33:28;15.80;;;13.00;;
24335;SDS011;33098;52.400;16.880;2022-10-16T01:36:06;17.00;;;12.10;;
24335;SDS011;33098;52.400;16.880;2022-10-16T01:38:39;14.80;;;11.70;;
24335;SDS011;33098;52.400;16.880;2022-10-16T01:41:09;15.40;;;12.20;;
24335;SDS011;33098;52.400;16.880;2022-10-16T01:46:47;15.60;;;12.10;;
24335;SDS011;33098;52.400;16.880;2022-10-16T01:49:18;16.20;;;12.50;;
24335;SDS011;33098;52.400;16.880;2022-10-16T01:54:21;13.40;;;10.90;;
24335;SDS011;33098;52.400;16.880;2022-10-16T01:56:52;15.10;;;11.60;;
24335;SDS011;33098;52.400;16.880;2022-10-16T01:59:21;13.80;;;11.50;;
24335;SDS011;33098;52.400;16.880;2022-10-16T02:01:58;13.80;;;11.80;;
24335;SDS011;33098;52.400;16.880;2022-10-16T02:04:29;16.10;;;12.20;;
24335;SDS011;33098;52.400;16.880;2022-10-16T02:07:08;15.20;;;12.10;;
24335;SDS011;33098;52.400;16.880;2022-10-16T02:09:38;15.60;;;12.20;;
24335;SDS011;33098;52.400;16.880;2022-10-16T02:12:15;15.50;;;11.80;;
24335;SDS011;33098;52.400;16.880;2022-10-16T02:14:51;13.20;;;11.00;;
24335;SDS011;33098;52.400;16.880;2022-10-16T02:17:19;16.70;;;11.60;;
24335;SDS011;33098;52.400;16.880;2022-10-16T02:19:52;16.60;;;12.10;;
24335;SDS011;33098;52.400;16.880;2022-10-16T02:22:25;13.20;;;11.10;;
24335;SDS011;33098;52.400;16.880;2022-10-16T02:25:11;15.30;;;11.60;;
24335;SDS011;33098;52.400;16.880;2022-10-16T02:28:06;16.90;;;12.40;;
24335;SDS011;33098;52.400;16.880;2022-10-16T02:33:24;16.70;;;12.40;;
24335;SDS011;33098;52.400;16.880;2022-10-16T02:35:53;14.00;;;11.50;;
24335;SDS011;33098;52.400;16.880;2022-10-16T02:38:22;15.00;;;12.50;;
24335;SDS011;33098;52.400;16.880;2022-10-16T02:40:50;14.30;;;12.30;;
24335;SDS011;33098;52.400;16.880;2022-10-16T02:43:17;14.50;;;12.20;;
24335;SDS011;33098;52.400;16.880;2022-10-16T02:45:50;15.90;;;12.30;;
24335;SDS011;33098;52.400;16.880;2022-10-16T02:48:19;14.60;;;11.90;;
24335;SDS011;33098;52.400;16.880;2022-10-16T02:50:45;14.80;;;11.70;;
24335;SDS011;33098;52.400;16.880;2022-10-16T02:53:13;15.80;;;12.00;;
24335;SDS011;33098;52.400;16.880;2022-10-16T02:55:40;16.80;;;12.70;;
24335;SDS011;33098;52.400;16.880;2022-10-16T02:58:08;14.50;;;12.10;;
24335;SDS011;33098;52.400;16.880;2022-10-16T03:00:34;15.40;;;12.40;;
24335;SDS011;33098;52.400;16.880;2022-10-16T03:03:03;14.80;;;12.00;;
24335;SDS011;33098;52.400;16.880;2022-10-16T03:05:30;15.40;;;12.20;;
24335;SDS011;33098;52.400;16.880;2022-10-16T03:07:57;16.00;;;12.60;;
24335;SDS011;33098;52.400;16.880;2022-10-16T03:10:26;14.90;;;11.70;;
24335;SDS011;33098;52.400;16.880;2022-10-16T03:12:54;18.30;;;12.80;;
24335;SDS011;33098;52.400;16.880;2022-10-16T03:15:20;15.50;;;12.20;;
24335;SDS011;33098;52.400;16.880;2022-10-16T03:17:47;15.80;;;12.90;;
24335;SDS011;33098;52.400;16.880;2022-10-16T03:20:18;15.60;;;12.40;;
24335;SDS011;33098;52.400;16.880;2022-10-16T03:22:45;17.10;;;13.40;;
24335;SDS011;33098;52.400;16.880;2022-10-16T03:25:12;16.90;;;13.60;;
24335;SDS011;33098;52.400;16.880;2022-10-16T03:27:39;15.70;;;13.20;;
24335;SDS011;33098;52.400;16.880;2022-10-16T03:30:09;16.60;;;13.50;;
24335;SDS011;33098;52.400;16.880;2022-10-16T03:32:37;16.70;;;12.80;;
24335;SDS011;33098;52.400;16.880;2022-10-16T03:35:05;16.60;;;13.40;;
24335;SDS011;33098;52.400;16.880;2022-10-16T03:37:32;17.30;;;14.00;;
24335;SDS011;33098;52.400;16.880;2022-10-16T03:39:59;16.30;;;13.00;;
24335;SDS011;33098;52.400;16.880;2022-10-16T03:42:26;16.80;;;13.40;;
24335;SDS011;33098;52.400;16.880;2022-10-16T03:44:57;17.50;;;13.70;;
24335;SDS011;33098;52.400;16.880;2022-10-16T03:47:24;15.80;;;13.70;;
24335;SDS011;33098;52.400;16.880;2022-10-16T03:49:57;18.10;;;13.90;;
24335;SDS011;33098;52.400;16.880;2022-10-16T03:52:24;17.90;;;13.60;;
24335;SDS011;33098;52.400;16.880;2022-10-16T03:54:51;16.80;;;13.30;;
24335;SDS011;33098;52.400;16.880;2022-10-16T03:57:18;19.30;;;14.00;;
24335;SDS011;33098;52.400;16.880;2022-10-16T03:59:45;16.30;;;13.10;;
24335;SDS011;33098;52.400;16.880;2022-10-16T04:02:13;16.50;;;13.20;;
24335;SDS011;33098;52.400;16.880;2022-10-16T04:04:40;16.60;;;13.10;;
24335;SDS011;33098;52.400;16.880;2022-10-16T04:07:07;18.00;;;13.20;;
24335;SDS011;33098;52.400;16.880;2022-10-16T04:09:34;16.00;;;13.10;;
24335;SDS011;33098;52.400;16.880;2022-10-16T04:12:00;16.30;;;13.20;;
24335;SDS011;33098;52.400;16.880;2022-10-16T04:14:27;15.90;;;12.80;;
24335;SDS011;33098;52.400;16.880;2022-10-16T04:16:57;16.00;;;13.00;;
24335;SDS011;33098;52.400;16.880;2022-10-16T04:19:26;16.90;;;13.00;;
24335;SDS011;33098;52.400;16.880;2022-10-16T04:21:53;19.70;;;13.30;;
24335;SDS011;33098;52.400;16.880;2022-10-16T04:24:20;16.00;;;13.10;;
24335;SDS011;33098;52.400;16.880;2022-10-16T04:26:50;18.30;;;13.60;;
24335;SDS011;33098;52.400;16.880;2022-10-16T04:29:19;15.60;;;12.70;;
24335;SDS011;33098;52.400;16.880;2022-10-16T04:31:51;16.50;;;13.50;;
24335;SDS011;33098;52.400;16.880;2022-10-16T04:34:18;16.80;;;12.90;;
24335;SDS011;33098;52.400;16.880;2022-10-16T04:36:50;17.40;;;13.30;;
24335;SDS011;33098;52.400;16.880;2022-10-16T04:39:18;17.80;;;13.60;;
24335;SDS011;33098;52.400;16.880;2022-10-16T04:41:48;17.00;;;14.20;;
24335;SDS011;33098;52.400;16.880;2022-10-16T04:44:18;15.40;;;13.40;;
24335;SDS011;33098;52.400;16.880;2022-10-16T04:46:47;17.20;;;14.20;;
24335;SDS011;33098;52.400;16.880;2022-10-16T04:49:17;16.50;;;13.50;;
24335;SDS011;33098;52.400;16.880;2022-10-16T04:51:45;16.90;;;14.00;;
24335;SDS011;33098;52.400;16.880;2022-10-16T04:54:11;17.60;;;14.70;;
24335;SDS011;33098;52.400;16.880;2022-10-16T04:56:43;18.40;;;14.20;;
24335;SDS011;33098;52.400;16.880;2022-10-16T04:59:14;19.80;;;14.20;;
24335;SDS011;33098;52.400;16.880;2022-10-16T05:01:49;15.60;;;13.60;;
24335;SDS011;33098;52.400;16.880;2022-10-16T05:04:16;16.90;;;13.50;;
24335;SDS011;33098;52.400;16.880;2022-10-16T05:06:43;17.40;;;13.60;;
24335;SDS011;33098;52.400;16.880;2022-10-16T05:09:10;16.90;;;13.70;;
24335;SDS011;33098;52.400;16.880;2022-10-16T05:11:37;15.90;;;13.10;;
24335;SDS011;33098;52.400;16.880;2022-10-16T05:14:03;16.50;;;13.50;;
24335;SDS011;33098;52.400;16.880;2022-10-16T05:16:30;15.90;;;13.30;;
24335;SDS011;33098;52.400;16.880;2022-10-16T05:18:57;17.80;;;13.30;;
24335;SDS011;33098;52.400;16.880;2022-10-16T05:21:24;17.10;;;13.50;;
24335;SDS011;33098;52.400;16.880;2022-10-16T05:23:52;18.50;;;13.50;;
24335;SDS011;33098;52.400;16.880;2022-10-16T05:26:21;15.90;;;13.00;;
24335;SDS011;33098;52.400;16.880;2022-10-16T05:28:49;17.90;;;12.90;;
24335;SDS011;33098;52.400;16.880;2022-10-16T05:31:16;18.00;;;13.60;;
24335;SDS011;33098;52.400;16.880;2022-10-16T05:33:42;16.30;;;13.30;;
24335;SDS011;33098;52.400;16.880;2022-10-16T05:36:11;17.30;;;13.60;;
24335;SDS011;33098;52.400;16.880;2022-10-16T05:38:39;15.30;;;13.00;;
24335;SDS011;33098;52.400;16.880;2022-10-16T05:41:06;17.80;;;13.70;;
24335;SDS011;33098;52.400;16.880;2022-10-16T05:43:33;17.30;;;13.30;;
24335;SDS011;33098;52.400;16.880;2022-10-16T05:46:01;16.20;;;13.50;;
24335;SDS011;33098;52.400;16.880;2022-10-16T05:48:32;18.60;;;13.70;;
24335;SDS011;33098;52.400;16.880;2022-10-16T05:51:00;17.10;;;14.40;;
24335;SDS011;33098;52.400;16.880;2022-10-16T05:53:30;17.70;;;13.80;;
24335;SDS011;33098;52.400;16.880;2022-10-16T05:55:58;17.50;;;13.90;;
24335;SDS011;33098;52.400;16.880;2022-10-16T05:58:30;16.10;;;13.00;;
24335;SDS011;33098;52.400;16.880;2022-10-16T06:01:02;16.10;;;13.40;;
24335;SDS011;33098;52.400;16.880;2022-10-16T06:03:31;18.40;;;13.00;;
24335;SDS011;33098;52.400;16.880;2022-10-16T06:05:57;15.80;;;13.40;;
24335;SDS011;33098;52.400;16.880;2022-10-16T06:08:26;16.70;;;12.90;;
24335;SDS011;33098;52.400;16.880;2022-10-16T06:11:00;16.50;;;13.10;;
24335;SDS011;33098;52.400;16.880;2022-10-16T06:13:35;15.10;;;13.10;;
24335;SDS011;33098;52.400;16.880;2022-10-16T06:16:03;13.70;;;12.10;;
24335;SDS011;33098;52.400;16.880;2022-10-16T06:18:31;15.50;;;13.40;;
24335;SDS011;33098;52.400;16.880;2022-10-16T06:20:58;17.20;;;13.20;;
24335;SDS011;33098;52.400;16.880;2022-10-16T06:23:25;17.10;;;13.90;;
24335;SDS011;33098;52.400;16.880;2022-10-16T06:26:03;17.80;;;13.50;;
24335;SDS011;33098;52.400;16.880;2022-10-16T06:28:40;19.20;;;13.10;;
24335;SDS011;33098;52.400;16.880;2022-10-16T06:31:08;15.90;;;13.10;;
24335;SDS011;33098;52.400;16.880;2022-10-16T06:33:36;15.10;;;12.80;;
24335;SDS011;33098;52.400;16.880;2022-10-16T06:36:15;15.60;;;12.90;;
24335;SDS011;33098;52.400;16.880;2022-10-16T06:38:43;14.70;;;12.70;;
24335;SDS011;33098;52.400;16.880;2022-10-16T06:41:15;14.30;;;12.60;;
24335;SDS011;33098;52.400;16.880;2022-10-16T06:43:43;15.80;;;14.20;;
24335;SDS011;33098;52.400;16.880;2022-10-16T06:46:14;15.30;;;13.30;;
24335;SDS011;33098;52.400;16.880;2022-10-16T06:51:12;17.60;;;14.90;;
24335;SDS011;33098;52.400;16.880;2022-10-16T06:53:42;15.70;;;13.90;;
24335;SDS011;33098;52.400;16.880;2022-10-16T06:56:19;17.10;;;14.40;;
24335;SDS011;33098;52.400;16.880;2022-10-16T06:58:48;17.40;;;13.40;;
24335;SDS011;33098;52.400;16.880;2022-10-16T07:01:16;15.60;;;13.60;;
24335;SDS011;33098;52.400;16.880;2022-10-16T07:03:46;16.40;;;14.00;;
24335;SDS011;33098;52.400;16.880;2022-10-16T07:06:15;16.20;;;13.50;;
24335;SDS011;33098;52.400;16.880;2022-10-16T07:08:44;18.90;;;13.80;;
24335;SDS011;33098;52.400;16.880;2022-10-16T07:11:14;14.70;;;13.00;;
24335;SDS011;33098;52.400;16.880;2022-10-16T07:13:43;18.00;;;13.60;;
24335;SDS011;33098;52.400;16.880;2022-10-16T07:16:12;14.20;;;12.70;;
24335;SDS011;33098;52.400;16.880;2022-10-16T07:18:46;17.10;;;13.80;;
24335;SDS011;33098;52.400;16.880;2022-10-16T07:21:16;15.70;;;13.40;;
24335;SDS011;33098;52.400;16.880;2022-10-16T07:26:16;14.40;;;12.90;;
24335;SDS011;33098;52.400;16.880;2022-10-16T07:28:44;16.30;;;13.60;;
24335;SDS011;33098;52.400;16.880;2022-10-16T07:31:11;16.10;;;14.20;;
24335;SDS011;33098;52.400;16.880;2022-10-16T07:33:42;16.30;;;13.50;;
24335;SDS011;33098;52.400;16.880;2022-10-16T07:36:11;15.10;;;13.50;;
24335;SDS011;33098;52.400;16.880;2022-10-16T07:38:38;16.20;;;13.10;;
24335;SDS011;33098;52.400;16.880;2022-10-16T07:41:06;15.00;;;12.70;;
24335;SDS011;33098;52.400;16.880;2022-10-16T07:43:35;13.10;;;11.80;;
24335;SDS011;33098;52.400;16.880;2022-10-16T07:46:05;13.60;;;12.20;;
24335;SDS011;33098;52.400;16.880;2022-10-16T07:48:33;16.50;;;12.70;;
24335;SDS011;33098;52.400;16.880;2022-10-16T07:51:02;12.80;;;11.30;;
24335;SDS011;33098;52.400;16.880;2022-10-16T07:53:33;13.50;;;11.70;;
24335;SDS011;33098;52.400;16.880;2022-10-16T07:56:04;14.30;;;11.60;;
24335;SDS011;33098;52.400;16.880;2022-10-16T07:58:32;12.80;;;11.40;;
24335;SDS011;33098;52.400;16.880;2022-10-16T08:01:04;16.90;;;12.30;;
24335;SDS011;33098;52.400;16.880;2022-10-16T08:03:31;15.00;;;12.00;;
24335;SDS011;33098;52.400;16.880;2022-10-16T08:06:00;13.40;;;11.80;;
24335;SDS011;33098;52.400;16.880;2022-10-16T08:08:27;13.00;;;11.60;;
24335;SDS011;33098;52.400;16.880;2022-10-16T08:10:54;13.10;;;11.50;;
24335;SDS011;33098;52.400;16.880;2022-10-16T08:13:21;13.80;;;11.90;;
24335;SDS011;33098;52.400;16.880;2022-10-16T08:15:48;14.00;;;12.30;;
24335;SDS011;33098;52.400;16.880;2022-10-16T08:18:17;14.80;;;12.10;;
24335;SDS011;33098;52.400;16.880;2022-10-16T08:20:43;14.80;;;11.50;;
24335;SDS011;33098;52.400;16.880;2022-10-16T08:23:11;13.00;;;11.00;;
24335;SDS011;33098;52.400;16.880;2022-10-16T08:25:39;13.60;;;11.50;;
24335;SDS011;33098;52.400;16.880;2022-10-16T08:28:08;14.70;;;11.20;;
24335;SDS011;33098;52.400;16.880;2022-10-16T08:30:36;12.30;;;10.80;;
24335;SDS011;33098;52.400;16.880;2022-10-16T08:33:07;13.50;;;10.30;;
24335;SDS011;33098;52.400;16.880;2022-10-16T08:35:33;15.80;;;10.50;;
24335;SDS011;33098;52.400;16.880;2022-10-16T08:38:02;14.10;;;10.60;;
24335;SDS011;33098;52.400;16.880;2022-10-16T08:40:31;12.10;;;10.00;;
24335;SDS011;33098;52.400;16.880;2022-10-16T08:43:12;11.10;;;9.70;;
24335;SDS011;33098;52.400;16.880;2022-10-16T08:46:11;10.50;;;9.40;;
24335;SDS011;33098;52.400;16.880;2022-10-16T08:48:57;10.10;;;9.00;;
24335;SDS011;33098;52.400;16.880;2022-10-16T08:51:35;9.20;;;8.30;;
24335;SDS011;33098;52.400;16.880;2022-10-16T08:54:04;9.20;;;8.30;;
24335;SDS011;33098;52.400;16.880;2022-10-16T08:56:32;9.80;;;8.00;;
24335;SDS011;33098;52.400;16.880;2022-10-16T08:59:00;8.30;;;7.50;;
24335;SDS011;33098;52.400;16.880;2022-10-16T09:01:37;8.40;;;7.50;;
24335;SDS011;33098;52.400;16.880;2022-10-16T09:07:27;9.20;;;7.60;;
24335;SDS011;33098;52.400;16.880;2022-10-16T09:10:17;9.00;;;7.10;;
24335;SDS011;33098;52.400;16.880;2022-10-16T09:13:10;8.70;;;7.30;;
24335;SDS011;33098;52.400;16.880;2022-10-16T09:18:20;7.90;;;7.10;;
24335;SDS011;33098;52.400;16.880;2022-10-16T09:20:58;8.80;;;7.50;;
24335;SDS011;33098;52.400;16.880;2022-10-16T09:23:36;9.60;;;7.90;;
24335;SDS011;33098;52.400;16.880;2022-10-16T09:26:04;9.30;;;7.60;;
24335;SDS011;33098;52.400;16.880;2022-10-16T09:28:35;9.70;;;8.30;;
24335;SDS011;33098;52.400;16.880;2022-10-16T09:31:02;8.70;;;7.80;;
24335;SDS011;33098;52.400;16.880;2022-10-16T09:33:29;8.90;;;7.70;;
24335;SDS011;33098;52.400;16.880;2022-10-16T09:36:04;9.80;;;8.50;;
24335;SDS011;33098;52.400;16.880;2022-10-16T09:38:33;8.70;;;7.70;;
24335;SDS011;33098;52.400;16.880;2022-10-16T09:41:21;9.50;;;8.20;;
24335;SDS011;33098;52.400;16.880;2022-10-16T09:43:54;9.40;;;7.90;;
24335;SDS011;33098;52.400;16.880;2022-10-16T09:46:36;11.90;;;7.90;;
24335;SDS011;33098;52.400;16.880;2022-10-16T09:49:25;9.90;;;7.30;;
24335;SDS011;33098;52.400;16.880;2022-10-16T09:52:04;7.20;;;6.50;;
24335;SDS011;33098;52.400;16.880;2022-10-16T09:54:32;8.70;;;7.30;;
24335;SDS011;33098;52.400;16.880;2022-10-16T09:57:06;7.80;;;6.30;;
24335;SDS011;33098;52.400;16.880;2022-10-16T09:59:49;6.40;;;5.80;;
24335;SDS011;33098;52.400;16.880;2022-10-16T10:02:31;7.30;;;6.50;;
24335;SDS011;33098;52.400;16.880;2022-10-16T10:05:01;8.60;;;6.10;;
24335;SDS011;33098;52.400;16.880;2022-10-16T10:07:33;6.70;;;5.80;;
24335;SDS011;33098;52.400;16.880;2022-10-16T10:10:19;6.40;;;5.70;;
24335;SDS011;33098;52.400;16.880;2022-10-16T10:12:50;6.00;;;5.40;;
24335;SDS011;33098;52.400;16.880;2022-10-16T10:15:16;7.10;;;5.50;;
24335;SDS011;33098;52.400;16.880;2022-10-16T10:17:48;6.30;;;5.70;;
24335;SDS011;33098;52.400;16.880;2022-10-16T10:20:23;7.20;;;6.50;;
24335;SDS011;33098;52.400;16.880;2022-10-16T10:22:50;6.80;;;6.10;;
24335;SDS011;33098;52.400;16.880;2022-10-16T10:30:40;11.40;;;6.10;;
24335;SDS011;33098;52.400;16.880;2022-10-16T10:41:27;9.00;;;6.70;;
24335;SDS011;33098;52.400;16.880;2022-10-16T10:44:16;7.10;;;6.20;;
24335;SDS011;33098;52.400;16.880;2022-10-16T10:49:50;7.20;;;6.40;;
24335;SDS011;33098;52.400;16.880;2022-10-16T10:52:27;7.40;;;6.30;;
24335;SDS011;33098;52.400;16.880;2022-10-16T10:55:05;6.50;;;5.90;;
24335;SDS011;33098;52.400;16.880;2022-10-16T10:57:42;7.90;;;6.00;;
24335;SDS011;33098;52.400;16.880;2022-10-16T11:00:28;7.80;;;6.10;;
24335;SDS011;33098;52.400;16.880;2022-10-16T11:03:06;7.30;;;5.70;;
24335;SDS011;33098;52.400;16.880;2022-10-16T11:05:45;6.50;;;5.80;;
24335;SDS011;33098;52.400;16.880;2022-10-16T11:10:58;7.40;;;5.80;;
24335;SDS011;33098;52.400;16.880;2022-10-16T11:13:55;7.70;;;5.50;;
24335;SDS011;33098;52.400;16.880;2022-10-16T11:16:27;7.70;;;5.40;;
24335;SDS011;33098;52.400;16.880;2022-10-16T11:22:11;5.70;;;5.10;;
24335;SDS011;33098;52.400;16.880;2022-10-16T11:24:55;5.90;;;5.20;;
24335;SDS011;33098;52.400;16.880;2022-10-16T11:27:40;7.30;;;4.60;;
24335;SDS011;33098;52.400;16.880;2022-10-16T11:30:33;5.70;;;5.10;;
24335;SDS011;33098;52.400;16.880;2022-10-16T11:35:53;4.50;;;4.00;;
24335;SDS011;33098;52.400;16.880;2022-10-16T11:41:27;6.10;;;3.70;;
24335;SDS011;33098;52.400;16.880;2022-10-16T11:46:46;5.50;;;3.50;;
24335;SDS011;33098;52.400;16.880;2022-10-16T11:49:21;4.10;;;3.20;;
24335;SDS011;33098;52.400;16.880;2022-10-16T11:57:44;3.90;;;3.10;;
24335;SDS011;33098;52.400;16.880;2022-10-16T12:03:11;4.40;;;3.70;;
24335;SDS011;33098;52.400;16.880;2022-10-16T12:12:04;4.50;;;3.40;;
24335;SDS011;33098;52.400;16.880;2022-10-16T12:14:59;4.60;;;3.40;;
24335;SDS011;33098;52.400;16.880;2022-10-16T12:17:44;4.80;;;3.60;;
24335;SDS011;33098;52.400;16.880;2022-10-16T12:22:41;3.40;;;3.00;;
24335;SDS011;33098;52.400;16.880;2022-10-16T12:25:20;3.40;;;3.10;;
24335;SDS011;33098;52.400;16.880;2022-10-16T12:27:56;3.70;;;3.00;;
24335;SDS011;33098;52.400;16.880;2022-10-16T12:30:26;3.20;;;2.90;;
24335;SDS011;33098;52.400;16.880;2022-10-16T12:32:56;5.40;;;2.90;;
24335;SDS011;33098;52.400;16.880;2022-10-16T12:35:29;3.20;;;2.80;;
24335;SDS011;33098;52.400;16.880;2022-10-16T12:38:16;3.10;;;2.80;;
24335;SDS011;33098;52.400;16.880;2022-10-16T12:41:23;3.10;;;2.60;;
24335;SDS011;33098;52.400;16.880;2022-10-16T12:43:51;3.10;;;2.60;;
24335;SDS011;33098;52.400;16.880;2022-10-16T12:48:44;2.60;;;2.40;;
24335;SDS011;33098;52.400;16.880;2022-10-16T12:53:59;3.30;;;2.40;;
24335;SDS011;33098;52.400;16.880;2022-10-16T12:59:05;3.20;;;2.60;;
24335;SDS011;33098;52.400;16.880;2022-10-16T13:09:58;2.70;;;2.50;;
24335;SDS011;33098;52.400;16.880;2022-10-16T13:20:46;3.40;;;2.60;;
24335;SDS011;33098;52.400;16.880;2022-10-16T13:23:45;5.60;;;3.00;;
24335;SDS011;33098;52.400;16.880;2022-10-16T13:29:09;3.00;;;2.80;;
24335;SDS011;33098;52.400;16.880;2022-10-16T13:31:37;4.20;;;3.10;;
24335;SDS011;33098;52.400;16.880;2022-10-16T13:34:05;4.40;;;3.70;;
24335;SDS011;33098;52.400;16.880;2022-10-16T13:36:43;4.70;;;3.40;;
24335;SDS011;33098;52.400;16.880;2022-10-16T13:39:24;4.20;;;3.00;;
24335;SDS011;33098;52.400;16.880;2022-10-16T13:42:05;3.70;;;2.80;;
24335;SDS011;33098;52.400;16.880;2022-10-16T13:44:42;4.10;;;3.00;;
24335;SDS011;33098;52.400;16.880;2022-10-16T13:47:21;3.30;;;3.00;;
24335;SDS011;33098;52.400;16.880;2022-10-16T13:50:02;4.80;;;3.40;;
24335;SDS011;33098;52.400;16.880;2022-10-16T13:52:31;3.80;;;3.20;;
24335;SDS011;33098;52.400;16.880;2022-10-16T13:54:58;4.30;;;3.70;;
24335;SDS011;33098;52.400;16.880;2022-10-16T13:57:27;5.10;;;3.40;;
24335;SDS011;33098;52.400;16.880;2022-10-16T13:59:57;5.60;;;3.60;;
24335;SDS011;33098;52.400;16.880;2022-10-16T14:04:52;4.90;;;3.20;;
24335;SDS011;33098;52.400;16.880;2022-10-16T14:07:24;3.60;;;3.30;;
24335;SDS011;33098;52.400;16.880;2022-10-16T14:09:53;5.20;;;3.30;;
24335;SDS011;33098;52.400;16.880;2022-10-16T14:12:22;4.60;;;3.20;;
24335;SDS011;33098;52.400;16.880;2022-10-16T14:14:53;3.20;;;2.90;;
24335;SDS011;33098;52.400;16.880;2022-10-16T14:17:22;4.00;;;2.90;;
24335;SDS011;33098;52.400;16.880;2022-10-16T14:19:59;3.70;;;3.30;;
24335;SDS011;33098;52.400;16.880;2022-10-16T14:28:04;4.30;;;3.30;;
24335;SDS011;33098;52.400;16.880;2022-10-16T14:30:33;4.70;;;3.20;;
24335;SDS011;33098;52.400;16.880;2022-10-16T14:33:04;6.30;;;3.60;;
24335;SDS011;33098;52.400;16.880;2022-10-16T14:35:45;4.10;;;3.50;;
24335;SDS011;33098;52.400;16.880;2022-10-16T14:38:19;7.10;;;3.80;;
24335;SDS011;33098;52.400;16.880;2022-10-16T14:40:48;4.00;;;3.60;;
24335;SDS011;33098;52.400;16.880;2022-10-16T14:43:21;4.50;;;3.70;;
24335;SDS011;33098;52.400;16.880;2022-10-16T14:45:55;4.20;;;3.80;;
24335;SDS011;33098;52.400;16.880;2022-10-16T14:48:23;4.20;;;3.80;;
24335;SDS011;33098;52.400;16.880;2022-10-16T14:50:54;5.10;;;3.60;;
24335;SDS011;33098;52.400;16.880;2022-10-16T14:53:21;5.30;;;3.60;;
24335;SDS011;33098;52.400;16.880;2022-10-16T14:55:52;3.90;;;3.50;;
24335;SDS011;33098;52.400;16.880;2022-10-16T14:58:20;5.10;;;4.10;;
24335;SDS011;33098;52.400;16.880;2022-10-16T15:00:49;5.90;;;4.20;;
24335;SDS011;33098;52.400;16.880;2022-10-16T15:03:18;4.60;;;3.20;;
24335;SDS011;33098;52.400;16.880;2022-10-16T15:05:48;3.10;;;2.80;;
24335;SDS011;33098;52.400;16.880;2022-10-16T15:08:15;3.70;;;2.80;;
24335;SDS011;33098;52.400;16.880;2022-10-16T15:10:43;2.80;;;2.60;;
24335;SDS011;33098;52.400;16.880;2022-10-16T15:13:14;3.30;;;2.60;;
24335;SDS011;33098;52.400;16.880;2022-10-16T15:15:44;4.20;;;2.40;;
24335;SDS011;33098;52.400;16.880;2022-10-16T15:18:17;2.70;;;2.50;;
24335;SDS011;33098;52.400;16.880;2022-10-16T15:20:49;5.90;;;2.40;;
24335;SDS011;33098;52.400;16.880;2022-10-16T15:23:21;2.90;;;2.30;;
24335;SDS011;33098;52.400;16.880;2022-10-16T15:25:53;3.20;;;2.90;;
24335;SDS011;33098;52.400;16.880;2022-10-16T15:28:22;3.10;;;2.60;;
24335;SDS011;33098;52.400;16.880;2022-10-16T15:30:57;3.00;;;2.70;;
24335;SDS011;33098;52.400;16.880;2022-10-16T15:33:25;3.50;;;2.60;;
24335;SDS011;33098;52.400;16.880;2022-10-16T15:38:22;5.50;;;3.40;;
24335;SDS011;33098;52.400;16.880;2022-10-16T15:40:50;3.80;;;3.10;;
24335;SDS011;33098;52.400;16.880;2022-10-16T15:43:25;4.40;;;3.30;;
24335;SDS011;33098;52.400;16.880;2022-10-16T15:48:51;3.00;;;2.70;;
24335;SDS011;33098;52.400;16.880;2022-10-16T15:51:31;5.90;;;3.30;;
24335;SDS011;33098;52.400;16.880;2022-10-16T15:54:00;7.60;;;3.30;;
24335;SDS011;33098;52.400;16.880;2022-10-16T15:56:32;7.00;;;4.00;;
24335;SDS011;33098;52.400;16.880;2022-10-16T15:59:01;7.10;;;4.10;;
24335;SDS011;33098;52.400;16.880;2022-10-16T16:01:35;7.50;;;4.40;;
24335;SDS011;33098;52.400;16.880;2022-10-16T16:04:05;7.50;;;4.50;;
24335;SDS011;33098;52.400;16.880;2022-10-16T16:06:37;5.40;;;4.00;;
24335;SDS011;33098;52.400;16.880;2022-10-16T16:09:11;4.10;;;3.70;;
24335;SDS011;33098;52.400;16.880;2022-10-16T16:11:40;5.30;;;3.80;;
24335;SDS011;33098;52.400;16.880;2022-10-16T16:14:09;6.30;;;4.40;;
24335;SDS011;33098;52.400;16.880;2022-10-16T16:16:39;4.50;;;3.60;;
24335;SDS011;33098;52.400;16.880;2022-10-16T16:19:08;4.40;;;3.80;;
24335;SDS011;33098;52.400;16.880;2022-10-16T16:21:39;6.60;;;4.00;;
24335;SDS011;33098;52.400;16.880;2022-10-16T16:24:09;5.00;;;3.60;;
24335;SDS011;33098;52.400;16.880;2022-10-16T16:29:11;4.00;;;3.70;;
24335;SDS011;33098;52.400;16.880;2022-10-16T16:31:40;4.50;;;4.00;;
24335;SDS011;33098;52.400;16.880;2022-10-16T16:34:08;6.30;;;4.00;;
24335;SDS011;33098;52.400;16.880;2022-10-16T16:39:06;5.40;;;3.90;;
24335;SDS011;33098;52.400;16.880;2022-10-16T16:41:34;6.10;;;4.30;;
24335;SDS011;33098;52.400;16.880;2022-10-16T16:44:01;5.00;;;3.90;;
24335;SDS011;33098;52.400;16.880;2022-10-16T16:46:33;6.20;;;4.40;;
24335;SDS011;33098;52.400;16.880;2022-10-16T16:49:12;5.20;;;4.00;;
24335;SDS011;33098;52.400;16.880;2022-10-16T16:51:40;9.60;;;4.80;;